sensor_id;sensor_type;location;lat;lon;timestamp;P1;P2;P0
56360;PMS7003;42611;51.132;13.588;2022-09-09T00:00:15;4.2;3.7;
56360;PMS7003;42611;51.132;13.588;2022-09-09T00:15:13;3.9;3.9;
56360;PMS7003;42611;51.132;13.588;2022-09-09T00:25:08;3.6;3.5;
56360;PMS7003;42611;51.132;13.588;2022-09-09T00:30:18;3.6;3.5;
56360;PMS7003;42611;51.132;13.588;2022-09-09T00:40:02;3.5;3.4;
56360;PMS7003;42611;51.132;13.588;2022-09-09T00:50:06;3.4;3.4;
56360;PMS7003;42611;51.132;13.588;2022-09-09T00:55:07;3.2;3.2;
56360;PMS7003;42611;51.132;13.588;2022-09-09T01:00:51;2.8;2.8;
56360;PMS7003;42611;51.132;13.588;2022-09-09T01:05:10;3.1;3.0;
56360;PMS7003;42611;51.132;13.588;2022-09-09T01:10:03;2.7;2.6;
56360;PMS7003;42611;51.132;13.588;2022-09-09T01:15:09;2.6;2.5;
56360;PMS7003;42611;51.132;13.588;2022-09-09T01:20:19;2.7;2.6;
56360;PMS7003;42611;51.132;13.588;2022-09-09T01:25:09;2.9;2.9;
56360;PMS7003;42611;51.132;13.588;2022-09-09T01:30:08;3.0;2.8;
56360;PMS7003;42611;51.132;13.588;2022-09-09T01:35:02;3.5;3.4;
56360;PMS7003;42611;51.132;13.588;2022-09-09T01:40:02;3.8;3.6;
56360;PMS7003;42611;51.132;13.588;2022-09-09T01:45:02;4.1;3.7;
56360;PMS7003;42611;51.132;13.588;2022-09-09T01:50:02;4.2;3.7;
56360;PMS7003;42611;51.132;13.588;2022-09-09T01:55:01;4.0;3.5;
56360;PMS7003;42611;51.132;13.588;2022-09-09T02:00:07;3.8;3.3;
56360;PMS7003;42611;51.132;13.588;2022-09-09T02:10:09;3.2;2.8;
56360;PMS7003;42611;51.132;13.588;2022-09-09T02:15:07;2.7;2.3;
56360;PMS7003;42611;51.132;13.588;2022-09-09T02:20:05;2.3;2.1;
56360;PMS7003;42611;51.132;13.588;2022-09-09T02:25:01;2.2;2.0;
56360;PMS7003;42611;51.132;13.588;2022-09-09T02:30:04;2.0;1.8;
56360;PMS7003;42611;51.132;13.588;2022-09-09T02:35:04;1.7;1.7;
56360;PMS7003;42611;51.132;13.588;2022-09-09T02:45:02;1.9;1.8;
56360;PMS7003;42611;51.132;13.588;2022-09-09T02:50:08;2.1;1.8;
56360;PMS7003;42611;51.132;13.588;2022-09-09T02:55:04;2.5;2.2;
56360;PMS7003;42611;51.132;13.588;2022-09-09T03:00:03;2.6;2.3;
56360;PMS7003;42611;51.132;13.588;2022-09-09T03:05:01;2.7;2.5;
56360;PMS7003;42611;51.132;13.588;2022-09-09T03:15:02;2.6;2.6;
56360;PMS7003;42611;51.132;13.588;2022-09-09T03:20:02;2.3;2.3;
56360;PMS7003;42611;51.132;13.588;2022-09-09T03:30:02;2.3;2.3;
56360;PMS7003;42611;51.132;13.588;2022-09-09T03:35:02;2.1;2.1;
56360;PMS7003;42611;51.132;13.588;2022-09-09T03:40:02;2.4;2.4;
56360;PMS7003;42611;51.132;13.588;2022-09-09T03:45:03;2.1;2.1;
56360;PMS7003;42611;51.132;13.588;2022-09-09T03:55:01;2.3;2.3;
56360;PMS7003;42611;51.132;13.588;2022-09-09T04:00:04;2.2;2.2;
56360;PMS7003;42611;51.132;13.588;2022-09-09T04:05:02;2.0;1.8;
56360;PMS7003;42611;51.132;13.588;2022-09-09T04:15:03;1.8;1.5;
56360;PMS7003;42611;51.132;13.588;2022-09-09T04:20:02;2.0;1.2;
56360;PMS7003;42611;51.132;13.588;2022-09-09T04:25:01;2.2;1.0;
56360;PMS7003;42611;51.132;13.588;2022-09-09T04:30:02;1.6;0.8;
56360;PMS7003;42611;51.132;13.588;2022-09-09T04:35:02;1.8;1.0;
56360;PMS7003;42611;51.132;13.588;2022-09-09T04:40:02;2.2;1.4;
56360;PMS7003;42611;51.132;13.588;2022-09-09T04:45:02;1.8;1.5;
56360;PMS7003;42611;51.132;13.588;2022-09-09T04:50:02;1.9;1.8;
56360;PMS7003;42611;51.132;13.588;2022-09-09T04:55:01;2.6;2.5;
56360;PMS7003;42611;51.132;13.588;2022-09-09T05:00:03;2.2;2.1;
56360;PMS7003;42611;51.132;13.588;2022-09-09T05:05:01;2.0;2.0;
56360;PMS7003;42611;51.132;13.588;2022-09-09T05:10:01;2.6;2.1;
56360;PMS7003;42611;51.132;13.588;2022-09-09T05:15:02;2.8;2.3;
56360;PMS7003;42611;51.132;13.588;2022-09-09T05:20:01;2.3;1.8;
56360;PMS7003;42611;51.132;13.588;2022-09-09T05:25:02;3.0;2.2;
56360;PMS7003;42611;51.132;13.588;2022-09-09T05:30:02;3.6;2.8;
56360;PMS7003;42611;51.132;13.588;2022-09-09T05:35:02;3.4;2.8;
56360;PMS7003;42611;51.132;13.588;2022-09-09T05:40:02;3.3;2.8;
56360;PMS7003;42611;51.132;13.588;2022-09-09T05:45:02;3.9;3.4;
56360;PMS7003;42611;51.132;13.588;2022-09-09T05:55:01;3.8;3.6;
56360;PMS7003;42611;51.132;13.588;2022-09-09T06:00:03;3.6;3.6;
56360;PMS7003;42611;51.132;13.588;2022-09-09T06:05:01;3.9;3.9;
56360;PMS7003;42611;51.132;13.588;2022-09-09T06:10:01;4.0;4.0;
56360;PMS7003;42611;51.132;13.588;2022-09-09T06:15:02;4.1;4.1;
56360;PMS7003;42611;51.132;13.588;2022-09-09T06:20:02;4.0;4.0;
56360;PMS7003;42611;51.132;13.588;2022-09-09T06:25:01;4.2;4.2;
56360;PMS7003;42611;51.132;13.588;2022-09-09T06:30:02;4.4;4.3;
56360;PMS7003;42611;51.132;13.588;2022-09-09T06:35:01;4.2;4.0;
56360;PMS7003;42611;51.132;13.588;2022-09-09T06:40:02;4.3;4.0;
56360;PMS7003;42611;51.132;13.588;2022-09-09T06:45:02;4.3;4.0;
56360;PMS7003;42611;51.132;13.588;2022-09-09T06:50:02;4.5;3.8;
56360;PMS7003;42611;51.132;13.588;2022-09-09T06:55:02;4.1;3.4;
56360;PMS7003;42611;51.132;13.588;2022-09-09T07:00:02;4.6;3.8;
56360;PMS7003;42611;51.132;13.588;2022-09-09T07:05:02;4.3;3.6;
56360;PMS7003;42611;51.132;13.588;2022-09-09T07:10:02;4.5;3.8;
56360;PMS7003;42611;51.132;13.588;2022-09-09T07:15:02;4.3;4.0;
56360;PMS7003;42611;51.132;13.588;2022-09-09T07:20:01;4.6;4.2;
56360;PMS7003;42611;51.132;13.588;2022-09-09T07:25:02;4.1;3.8;
56360;PMS7003;42611;51.132;13.588;2022-09-09T07:30:02;4.3;4.0;
56360;PMS7003;42611;51.132;13.588;2022-09-09T07:35:02;3.8;3.4;
56360;PMS7003;42611;51.132;13.588;2022-09-09T07:40:01;3.7;3.0;
56360;PMS7003;42611;51.132;13.588;2022-09-09T07:45:02;3.6;3.0;
56360;PMS7003;42611;51.132;13.588;2022-09-09T07:50:01;3.3;2.9;
56360;PMS7003;42611;51.132;13.588;2022-09-09T07:55:03;3.2;2.7;
56360;PMS7003;42611;51.132;13.588;2022-09-09T08:00:03;3.3;3.0;
56360;PMS7003;42611;51.132;13.588;2022-09-09T08:05:01;2.9;2.8;
56360;PMS7003;42611;51.132;13.588;2022-09-09T08:10:02;2.6;2.5;
56360;PMS7003;42611;51.132;13.588;2022-09-09T08:15:02;2.3;2.2;
56360;PMS7003;42611;51.132;13.588;2022-09-09T08:20:02;2.0;2.0;
56360;PMS7003;42611;51.132;13.588;2022-09-09T08:25:01;1.9;1.8;
56360;PMS7003;42611;51.132;13.588;2022-09-09T08:30:02;2.0;2.0;
56360;PMS7003;42611;51.132;13.588;2022-09-09T08:35:08;2.2;2.0;
56360;PMS7003;42611;51.132;13.588;2022-09-09T08:40:02;2.4;2.2;
56360;PMS7003;42611;51.132;13.588;2022-09-09T08:45:19;2.0;1.8;
56360;PMS7003;42611;51.132;13.588;2022-09-09T08:50:19;1.8;1.6;
56360;PMS7003;42611;51.132;13.588;2022-09-09T08:55:05;1.5;1.3;
56360;PMS7003;42611;51.132;13.588;2022-09-09T09:00:03;0.8;0.8;
56360;PMS7003;42611;51.132;13.588;2022-09-09T09:05:08;0.4;0.4;
56360;PMS7003;42611;51.132;13.588;2022-09-09T09:11:06;0.6;0.4;
56360;PMS7003;42611;51.132;13.588;2022-09-09T09:15:02;0.4;0.2;
56360;PMS7003;42611;51.132;13.588;2022-09-09T09:20:01;0.9;0.6;
56360;PMS7003;42611;51.132;13.588;2022-09-09T09:25:08;1.6;1.0;
56360;PMS7003;42611;51.132;13.588;2022-09-09T09:30:35;1.6;1.0;
56360;PMS7003;42611;51.132;13.588;2022-09-09T10:05:29;0.0;0.0;
56360;PMS7003;42611;51.132;13.588;2022-09-09T10:10:02;0.1;0.1;
56360;PMS7003;42611;51.132;13.588;2022-09-09T10:15:44;0.4;0.4;
56360;PMS7003;42611;51.132;13.588;2022-09-09T10:26:19;0.4;0.4;
56360;PMS7003;42611;51.132;13.588;2022-09-09T10:36:26;0.6;0.3;
56360;PMS7003;42611;51.132;13.588;2022-09-09T10:46:45;0.8;0.4;
56360;PMS7003;42611;51.132;13.588;2022-09-09T10:51:23;0.9;0.6;
56360;PMS7003;42611;51.132;13.588;2022-09-09T10:56:17;1.1;0.7;
56360;PMS7003;42611;51.132;13.588;2022-09-09T11:06:06;0.9;0.7;
56360;PMS7003;42611;51.132;13.588;2022-09-09T11:16:50;0.7;0.4;
56360;PMS7003;42611;51.132;13.588;2022-09-09T11:21:01;0.4;0.4;
56360;PMS7003;42611;51.132;13.588;2022-09-09T11:26:02;0.6;0.3;
56360;PMS7003;42611;51.132;13.588;2022-09-09T11:31:06;0.8;0.5;
56360;PMS7003;42611;51.132;13.588;2022-09-09T11:37:00;1.0;0.6;
56360;PMS7003;42611;51.132;13.588;2022-09-09T11:41:05;1.2;0.8;
56360;PMS7003;42611;51.132;13.588;2022-09-09T11:46:02;1.6;1.0;
56360;PMS7003;42611;51.132;13.588;2022-09-09T11:51:07;1.4;1.0;
56360;PMS7003;42611;51.132;13.588;2022-09-09T11:56:09;1.8;1.4;
56360;PMS7003;42611;51.132;13.588;2022-09-09T12:01:15;2.4;1.8;
56360;PMS7003;42611;51.132;13.588;2022-09-09T12:06:25;2.8;2.1;
56360;PMS7003;42611;51.132;13.588;2022-09-09T12:11:01;4.0;3.3;
56360;PMS7003;42611;51.132;13.588;2022-09-09T12:16:01;4.1;3.4;
56360;PMS7003;42611;51.132;13.588;2022-09-09T12:21:36;3.9;3.1;
56360;PMS7003;42611;51.132;13.588;2022-09-09T12:26:16;3.5;2.9;
56360;PMS7003;42611;51.132;13.588;2022-09-09T12:31:07;3.1;2.6;
56360;PMS7003;42611;51.132;13.588;2022-09-09T12:36:04;1.8;1.3;
56360;PMS7003;42611;51.132;13.588;2022-09-09T12:41:02;2.1;1.6;
56360;PMS7003;42611;51.132;13.588;2022-09-09T12:46:03;2.0;1.4;
56360;PMS7003;42611;51.132;13.588;2022-09-09T12:51:01;1.6;1.2;
56360;PMS7003;42611;51.132;13.588;2022-09-09T12:56:05;1.8;1.2;
56360;PMS7003;42611;51.132;13.588;2022-09-09T13:06:34;1.6;1.3;
56360;PMS7003;42611;51.132;13.588;2022-09-09T13:11:10;1.8;1.4;
56360;PMS7003;42611;51.132;13.588;2022-09-09T13:16:02;1.9;1.5;
56360;PMS7003;42611;51.132;13.588;2022-09-09T13:21:03;2.0;1.4;
56360;PMS7003;42611;51.132;13.588;2022-09-09T13:26:04;1.8;1.2;
56360;PMS7003;42611;51.132;13.588;2022-09-09T13:31:05;1.9;1.4;
56360;PMS7003;42611;51.132;13.588;2022-09-09T13:36:03;1.8;1.4;
56360;PMS7003;42611;51.132;13.588;2022-09-09T13:41:02;1.6;1.2;
56360;PMS7003;42611;51.132;13.588;2022-09-09T13:46:03;1.3;1.2;
56360;PMS7003;42611;51.132;13.588;2022-09-09T14:01:02;1.2;1.2;
56360;PMS7003;42611;51.132;13.588;2022-09-09T14:16:02;1.2;1.2;
56360;PMS7003;42611;51.132;13.588;2022-09-09T14:31:03;1.4;1.3;
56360;PMS7003;42611;51.132;13.588;2022-09-09T14:36:02;1.6;1.4;
56360;PMS7003;42611;51.132;13.588;2022-09-09T14:41:01;1.7;1.6;
56360;PMS7003;42611;51.132;13.588;2022-09-09T14:46:07;1.6;1.6;
56360;PMS7003;42611;51.132;13.588;2022-09-09T14:51:06;1.4;1.4;
56360;PMS7003;42611;51.132;13.588;2022-09-09T14:56:07;1.2;1.2;
56360;PMS7003;42611;51.132;13.588;2022-09-09T15:01:03;1.3;1.1;
56360;PMS7003;42611;51.132;13.588;2022-09-09T15:06:18;1.6;1.3;
56360;PMS7003;42611;51.132;13.588;2022-09-09T15:11:02;1.8;1.2;
56360;PMS7003;42611;51.132;13.588;2022-09-09T15:16:07;2.0;1.4;
56360;PMS7003;42611;51.132;13.588;2022-09-09T15:26:03;1.6;1.2;
56360;PMS7003;42611;51.132;13.588;2022-09-09T15:31:02;1.0;0.7;
56360;PMS7003;42611;51.132;13.588;2022-09-09T15:36:11;0.7;0.7;
56360;PMS7003;42611;51.132;13.588;2022-09-09T15:41:02;0.4;0.4;
56360;PMS7003;42611;51.132;13.588;2022-09-09T15:51:05;0.6;0.3;
56360;PMS7003;42611;51.132;13.588;2022-09-09T15:56:01;0.8;0.5;
56360;PMS7003;42611;51.132;13.588;2022-09-09T16:01:05;0.6;0.3;
56360;PMS7003;42611;51.132;13.588;2022-09-09T16:16:03;0.6;0.6;
56360;PMS7003;42611;51.132;13.588;2022-09-09T16:21:02;0.4;0.4;
56360;PMS7003;42611;51.132;13.588;2022-09-09T16:36:09;0.4;0.4;
56360;PMS7003;42611;51.132;13.588;2022-09-09T16:41:03;0.7;0.4;
56360;PMS7003;42611;51.132;13.588;2022-09-09T16:46:02;1.1;0.4;
56360;PMS7003;42611;51.132;13.588;2022-09-09T16:51:03;1.2;0.5;
56360;PMS7003;42611;51.132;13.588;2022-09-09T17:01:03;1.4;0.6;
56360;PMS7003;42611;51.132;13.588;2022-09-09T17:06:02;0.8;0.4;
56360;PMS7003;42611;51.132;13.588;2022-09-09T17:11:01;0.4;0.4;
56360;PMS7003;42611;51.132;13.588;2022-09-09T17:21:04;1.0;1.0;
56360;PMS7003;42611;51.132;13.588;2022-09-09T17:36:02;1.2;1.2;
56360;PMS7003;42611;51.132;13.588;2022-09-09T17:41:13;1.4;1.1;
56360;PMS7003;42611;51.132;13.588;2022-09-09T17:46:06;1.7;0.9;
56360;PMS7003;42611;51.132;13.588;2022-09-09T17:51:04;2.0;1.0;
56360;PMS7003;42611;51.132;13.588;2022-09-09T17:56:02;2.7;1.8;
56360;PMS7003;42611;51.132;13.588;2022-09-09T18:01:03;3.2;2.2;
56360;PMS7003;42611;51.132;13.588;2022-09-09T18:06:03;3.7;3.0;
56360;PMS7003;42611;51.132;13.588;2022-09-09T18:11:02;4.0;3.6;
56360;PMS7003;42611;51.132;13.588;2022-09-09T18:16:06;4.1;3.9;
56360;PMS7003;42611;51.132;13.588;2022-09-09T18:26:13;3.9;3.7;
56360;PMS7003;42611;51.132;13.588;2022-09-09T18:31:08;4.0;3.6;
56360;PMS7003;42611;51.132;13.588;2022-09-09T18:36:04;3.1;2.9;
56360;PMS7003;42611;51.132;13.588;2022-09-09T18:41:19;3.4;3.1;
56360;PMS7003;42611;51.132;13.588;2022-09-09T18:46:03;2.9;2.6;
56360;PMS7003;42611;51.132;13.588;2022-09-09T18:51:05;3.1;2.8;
56360;PMS7003;42611;51.132;13.588;2022-09-09T18:56:03;2.9;2.8;
56360;PMS7003;42611;51.132;13.588;2022-09-09T19:01:02;4.2;4.2;
56360;PMS7003;42611;51.132;13.588;2022-09-09T19:06:02;6.2;5.9;
56360;PMS7003;42611;51.132;13.588;2022-09-09T19:11:03;7.3;7.0;
56360;PMS7003;42611;51.132;13.588;2022-09-09T19:16:02;8.4;8.1;
56360;PMS7003;42611;51.132;13.588;2022-09-09T19:21:13;8.8;8.6;
56360;PMS7003;42611;51.132;13.588;2022-09-09T19:26:02;8.7;8.2;
56360;PMS7003;42611;51.132;13.588;2022-09-09T19:31:05;7.2;7.0;
56360;PMS7003;42611;51.132;13.588;2022-09-09T19:36:03;7.5;7.2;
56360;PMS7003;42611;51.132;13.588;2022-09-09T19:46:05;7.6;6.9;
56360;PMS7003;42611;51.132;13.588;2022-09-09T19:56:02;8.8;7.6;
56360;PMS7003;42611;51.132;13.588;2022-09-09T20:01:04;9.2;7.9;
56360;PMS7003;42611;51.132;13.588;2022-09-09T20:07:01;9.0;7.9;
56360;PMS7003;42611;51.132;13.588;2022-09-09T20:12:01;8.6;7.5;
56360;PMS7003;42611;51.132;13.588;2022-09-09T20:17:01;8.5;7.4;
56360;PMS7003;42611;51.132;13.588;2022-09-09T20:22:02;7.2;6.8;
56360;PMS7003;42611;51.132;13.588;2022-09-09T20:27:02;6.4;6.2;
56360;PMS7003;42611;51.132;13.588;2022-09-09T20:32:01;6.3;6.3;
56360;PMS7003;42611;51.132;13.588;2022-09-09T20:37:01;7.6;7.5;
56360;PMS7003;42611;51.132;13.588;2022-09-09T20:42:01;7.9;7.8;
56360;PMS7003;42611;51.132;13.588;2022-09-09T20:47:01;7.6;7.4;
56360;PMS7003;42611;51.132;13.588;2022-09-09T20:57:02;7.3;7.0;
56360;PMS7003;42611;51.132;13.588;2022-09-09T21:02:02;6.0;5.8;
56360;PMS7003;42611;51.132;13.588;2022-09-09T21:07:01;5.8;5.6;
56360;PMS7003;42611;51.132;13.588;2022-09-09T21:12:01;6.4;6.2;
56360;PMS7003;42611;51.132;13.588;2022-09-09T21:17:01;7.5;7.2;
56360;PMS7003;42611;51.132;13.588;2022-09-09T21:22:01;8.7;8.4;
56360;PMS7003;42611;51.132;13.588;2022-09-09T21:27:01;9.8;9.5;
56360;PMS7003;42611;51.132;13.588;2022-09-09T21:32:01;10.9;10.6;
56360;PMS7003;42611;51.132;13.588;2022-09-09T21:37:01;11.5;11.2;
56360;PMS7003;42611;51.132;13.588;2022-09-09T21:42:01;11.4;11.4;
56360;PMS7003;42611;51.132;13.588;2022-09-09T21:47:02;11.0;11.0;
56360;PMS7003;42611;51.132;13.588;2022-09-09T21:52:01;10.8;10.8;
56360;PMS7003;42611;51.132;13.588;2022-09-09T21:57:01;10.4;10.3;
56360;PMS7003;42611;51.132;13.588;2022-09-09T22:02:02;10.1;9.7;
56360;PMS7003;42611;51.132;13.588;2022-09-09T22:07:02;9.3;8.9;
56360;PMS7003;42611;51.132;13.588;2022-09-09T22:12:01;8.8;8.3;
56360;PMS7003;42611;51.132;13.588;2022-09-09T22:17:02;8.6;8.1;
56360;PMS7003;42611;51.132;13.588;2022-09-09T22:22:01;9.2;7.9;
56360;PMS7003;42611;51.132;13.588;2022-09-09T22:27:02;9.3;8.0;
56360;PMS7003;42611;51.132;13.588;2022-09-09T22:32:01;9.7;8.4;
56360;PMS7003;42611;51.132;13.588;2022-09-09T22:38:01;9.2;8.0;
56360;PMS7003;42611;51.132;13.588;2022-09-09T22:43:02;8.6;7.3;
56360;PMS7003;42611;51.132;13.588;2022-09-09T22:48:02;6.6;6.3;
56360;PMS7003;42611;51.132;13.588;2022-09-09T22:53:02;5.2;5.2;
56360;PMS7003;42611;51.132;13.588;2022-09-09T22:58:01;3.8;3.8;
56360;PMS7003;42611;51.132;13.588;2022-09-09T23:03:01;3.6;3.6;
56360;PMS7003;42611;51.132;13.588;2022-09-09T23:08:02;3.2;3.2;
56360;PMS7003;42611;51.132;13.588;2022-09-09T23:13:01;2.9;2.9;
56360;PMS7003;42611;51.132;13.588;2022-09-09T23:18:01;3.3;3.2;
56360;PMS7003;42611;51.132;13.588;2022-09-09T23:23:01;3.6;3.6;
56360;PMS7003;42611;51.132;13.588;2022-09-09T23:28:02;3.7;3.7;
56360;PMS7003;42611;51.132;13.588;2022-09-09T23:33:01;3.5;3.5;
56360;PMS7003;42611;51.132;13.588;2022-09-09T23:38:01;3.6;3.6;
56360;PMS7003;42611;51.132;13.588;2022-09-09T23:43:02;3.5;3.4;
56360;PMS7003;42611;51.132;13.588;2022-09-09T23:48:01;2.8;2.8;
56360;PMS7003;42611;51.132;13.588;2022-09-09T23:58:02;3.2;2.8;
